Time;durP1;ratioP1;P1;durP2;ratioP2;P2;SDS_P1;SDS_P2;PMS_P1;PMS_P2;Temp;Humidity;BMP_temperature;BMP_pressure;BME280_temperature;BME280_humidity;BME280_pressure;Samples;Min_cycle;Max_cycle;Signal;HPM_P1;HPM_P2
2023/09/25 00:00:49;;;;;;;1.90;1.20;;;;;;;18.25;90.20;99784.06;105618;1251;62364;-22
2023/09/25 00:03:16;;;;;;;2.90;1.30;;;;;;;18.65;88.12;99784.58;105956;1264;61137;-22
2023/09/25 00:05:46;;;;;;;1.80;1.50;;;;;;;18.96;85.38;99783.92;106009;1257;73619;-22
2023/09/25 00:08:13;;;;;;;5.40;2.20;;;;;;;18.96;85.10;99781.92;105721;1257;72786;-22
2023/09/25 00:10:41;;;;;;;3.80;2.20;;;;;;;18.40;87.50;99783.08;105879;1255;72626;-22
2023/09/25 00:13:09;;;;;;;3.10;1.60;;;;;;;17.77;92.12;99789.08;105695;1251;61078;-22
2023/09/25 00:18:01;;;;;;;3.20;1.60;;;;;;;18.45;88.79;99783.43;102772;1290;600695;-21
2023/09/25 00:20:30;;;;;;;2.40;1.80;;;;;;;18.42;88.23;99783.88;108615;1267;58935;-22
2023/09/25 00:22:59;;;;;;;2.40;1.80;;;;;;;18.32;88.57;99785.98;108620;1264;60089;-23
2023/09/25 00:25:31;;;;;;;2.10;1.70;;;;;;;18.28;88.68;99786.02;108716;1264;72327;-22
2023/09/25 00:27:59;;;;;;;4.70;1.60;;;;;;;18.18;89.65;99784.55;108686;1264;73155;-23
2023/09/25 00:30:28;;;;;;;2.80;2.10;;;;;;;18.13;89.77;99783.88;107455;1267;2960047;-22
2023/09/25 00:32:56;;;;;;;2.40;1.80;;;;;;;18.31;88.86;99789.40;108640;1262;58825;-22
2023/09/25 00:35:24;;;;;;;2.10;1.90;;;;;;;17.98;90.63;99792.72;108734;1262;58807;-22
2023/09/25 00:37:51;;;;;;;2.50;1.70;;;;;;;17.96;91.02;99798.03;108739;1262;58804;-22
2023/09/25 00:40:21;;;;;;;4.40;2.00;;;;;;;18.10;90.38;99799.47;108847;1262;72274;-22
2023/09/25 00:42:49;;;;;;;5.10;2.10;;;;;;;18.19;90.44;99797.79;108744;1264;74321;-23
2023/09/25 00:45:17;;;;;;;3.00;2.10;;;;;;;18.36;88.39;99791.55;108636;1264;72716;-22
2023/09/25 00:47:45;;;;;;;3.80;2.00;;;;;;;17.86;91.29;99797.58;108844;1262;60113;-23
2023/09/25 00:50:12;;;;;;;3.10;2.30;;;;;;;17.82;91.93;99794.61;108856;1262;58818;-22
2023/09/25 00:52:42;;;;;;;3.30;2.10;;;;;;;17.73;92.33;99792.55;108763;1264;73037;-22
2023/09/25 00:55:10;;;;;;;4.70;2.70;;;;;;;17.65;93.45;99791.40;108635;1262;74410;-22
2023/09/25 00:57:38;;;;;;;4.90;2.60;;;;;;;17.87;92.34;99787.15;108624;1264;71676;-22
2023/09/25 01:00:11;;;;;;;4.20;2.80;;;;;;;17.86;91.39;99785.34;108782;1263;58792;-22
2023/09/25 01:02:39;;;;;;;5.20;2.10;;;;;;;17.54;93.99;99789.67;108724;1262;60019;-22
2023/09/25 01:05:08;;;;;;;5.50;2.90;;;;;;;17.69;93.58;99789.42;108731;1262;73040;-22
2023/09/25 01:07:36;;;;;;;3.50;2.40;;;;;;;17.50;94.98;99796.61;108784;1262;74294;-23
2023/09/25 01:10:14;;;;;;;7.10;2.60;;;;;;;17.73;93.34;99796.83;108781;1264;70415;-22
2023/09/25 01:12:43;;;;;;;4.10;2.90;;;;;;;17.79;92.87;99793.38;108673;1262;58864;-23
2023/09/25 01:15:12;;;;;;;5.70;2.90;;;;;;;17.40;94.80;99794.62;108645;1263;59108;-22
2023/09/25 01:17:41;;;;;;;4.60;3.20;;;;;;;17.69;94.69;99800.90;108837;1263;73032;-22
2023/09/25 01:20:17;;;;;;;5.80;3.50;;;;;;;17.61;94.21;99801.53;108725;1263;74496;-22
2023/09/25 01:22:46;;;;;;;6.00;3.80;;;;;;;17.73;93.06;99799.98;108782;1264;71818;-22
2023/09/25 01:25:15;;;;;;;4.60;3.60;;;;;;;17.31;95.27;99798.95;108548;1268;58834;-23
2023/09/25 01:27:44;;;;;;;4.20;2.50;;;;;;;17.36;95.80;99791.42;108771;1263;60080;-22
2023/09/25 01:30:13;;;;;;;4.70;3.40;;;;;;;17.63;93.56;99793.59;108691;1263;72243;-23
2023/09/25 01:32:44;;;;;;;5.30;3.50;;;;;;;17.60;93.72;99795.08;108680;1263;73013;-22
2023/09/25 01:35:16;;;;;;;3.80;3.40;;;;;;;17.89;91.94;99792.89;108605;1263;71514;-22
2023/09/25 01:37:45;;;;;;;3.20;2.30;;;;;;;17.43;94.87;99791.30;108591;1263;62148;-23
2023/09/25 01:40:13;;;;;;;5.40;3.50;;;;;;;17.73;93.21;99791.83;108678;1263;60036;-23
2023/09/25 01:42:43;;;;;;;4.70;3.30;;;;;;;17.99;91.35;99792.77;108661;1263;73044;-22
2023/09/25 01:45:11;;;;;;;3.50;3.20;;;;;;;17.94;90.98;99791.19;108626;1263;74302;-22
2023/09/25 01:47:40;;;;;;;5.40;3.90;;;;;;;17.58;92.24;99792.80;108597;1263;72797;-22
2023/09/25 01:50:11;;;;;;;4.20;2.90;;;;;;;17.62;92.49;99790.12;108718;1263;60359;-22
2023/09/25 01:52:39;;;;;;;5.80;3.80;;;;;;;17.95;90.96;99786.59;109126;1256;60007;-23
2023/09/25 01:55:07;;;;;;;5.20;4.00;;;;;;;18.23;88.34;99786.71;109096;1257;73099;-23
2023/09/25 01:57:36;;;;;;;5.20;3.70;;;;;;;17.83;90.18;99791.89;109055;1257;74645;-22
2023/09/25 02:00:10;;;;;;;6.10;4.40;;;;;;;17.86;90.56;99797.28;109097;1257;73281;-22
2023/09/25 02:02:43;;;;;;;4.80;3.70;;;;;;;17.60;91.57;99801.60;109062;1256;61668;-23
2023/09/25 02:05:11;;;;;;;5.70;4.60;;;;;;;17.84;90.78;99800.10;109137;1256;60022;-23
2023/09/25 02:07:39;;;;;;;5.60;4.60;;;;;;;18.14;88.61;99797.30;109135;1257;71021;-23
2023/09/25 02:10:08;;;;;;;7.40;5.00;;;;;;;17.74;90.47;99799.46;109151;1256;73168;-22
2023/09/25 02:12:36;;;;;;;7.60;4.80;;;;;;;17.67;90.94;99799.28;109087;1257;72645;-22
2023/09/25 02:15:05;;;;;;;4.60;3.70;;;;;;;17.66;91.52;99802.56;109086;1257;59459;-22
2023/09/25 02:17:34;;;;;;;5.20;4.50;;;;;;;17.74;90.65;99801.98;109103;1256;60007;-23
2023/09/25 02:20:17;;;;;;;9.00;4.80;;;;;;;17.70;91.10;99803.05;109052;1256;73193;-22
2023/09/25 02:22:49;;;;;;;5.90;4.90;;;;;;;17.77;91.09;99809.37;109147;1256;74313;-22
2023/09/25 02:25:17;;;;;;;5.80;5.20;;;;;;;17.63;91.53;99808.64;109115;1256;71496;-22
2023/09/25 02:27:46;;;;;;;6.00;4.60;;;;;;;17.47;92.72;99808.80;109135;1257;60767;-22
2023/09/25 02:30:14;;;;;;;6.90;5.80;;;;;;;17.60;92.32;99811.10;109115;1257;60006;-23
2023/09/25 02:32:43;;;;;;;7.80;5.10;;;;;;;17.49;92.66;99808.48;109065;1257;71925;-23
2023/09/25 02:35:11;;;;;;;6.20;5.60;;;;;;;17.61;91.83;99809.44;109145;1257;73706;-22
2023/09/25 02:37:40;;;;;;;11.40;6.20;;;;;;;17.63;92.04;99808.27;109072;1257;72643;-22
2023/09/25 02:40:13;;;;;;;7.60;6.30;;;;;;;17.70;91.50;99811.36;108980;1258;61697;-23
2023/09/25 02:42:45;;;;;;;9.20;6.60;;;;;;;18.11;89.49;99809.05;109127;1257;58815;-23
2023/09/25 02:45:13;;;;;;;25.10;18.60;;;;;;;18.19;88.50;99810.35;109107;1257;73019;-22
2023/09/25 02:47:41;;;;;;;52.80;28.00;;;;;;;18.25;87.57;99808.18;109061;1257;73162;-23
2023/09/25 02:50:09;;;;;;;60.00;39.70;;;;;;;17.99;88.67;99812.69;109105;1256;72678;-22
2023/09/25 02:52:37;;;;;;;12.30;8.70;;;;;;;17.99;89.32;99814.70;109052;1257;61676;-22
2023/09/25 02:55:04;;;;;;;16.90;11.40;;;;;;;18.17;88.60;99810.55;109143;1257;59991;-23
2023/09/25 02:57:32;;;;;;;13.80;10.40;;;;;;;18.53;86.25;99811.05;109062;1257;71776;-22
2023/09/25 03:00:02;;;;;;;18.20;12.30;;;;;;;18.10;88.09;99810.56;109348;1253;74284;-22
2023/09/25 03:02:30;;;;;;;21.50;14.20;;;;;;;18.22;87.58;99813.36;109463;1254;71375;-22
2023/09/25 03:04:58;;;;;;;26.20;20.20;;;;;;;17.67;90.33;99817.61;109463;1254;60044;-22
2023/09/25 03:07:25;;;;;;;16.50;12.80;;;;;;;18.03;89.46;99824.90;109470;1256;59095;-23
2023/09/25 03:09:53;;;;;;;12.80;9.50;;;;;;;18.40;87.09;99819.98;109379;1253;72875;-22
2023/09/25 03:12:20;;;;;;;22.30;13.10;;;;;;;18.42;86.28;99826.30;109350;1253;76752;-22
2023/09/25 03:14:49;;;;;;;121.50;108.80;;;;;;;17.98;88.74;99828.23;109350;1253;71199;-22
2023/09/25 03:17:17;;;;;;;35.20;30.30;;;;;;;17.64;90.76;99831.23;109337;1253;59411;-22
2023/09/25 03:19:45;;;;;;;24.00;15.40;;;;;;;17.79;90.59;99836.21;109462;1253;60050;-22
2023/09/25 03:22:12;;;;;;;48.80;24.90;;;;;;;18.37;87.74;99833.70;109449;1253;70894;-23
2023/09/25 03:24:40;;;;;;;42.30;23.10;;;;;;;18.08;88.31;99835.52;109486;1253;74274;-22
2023/09/25 03:27:08;;;;;;;51.80;28.50;;;;;;;18.00;88.41;99838.36;109346;1253;72716;-22
2023/09/25 03:29:35;;;;;;;56.60;32.00;;;;;;;17.91;89.04;99841.02;109376;1254;60072;-22
2023/09/25 03:32:03;;;;;;;26.40;18.10;;;;;;;18.07;88.17;99841.91;109301;1254;59225;-22
2023/09/25 03:34:31;;;;;;;16.70;11.50;;;;;;;18.21;87.12;99843.54;109299;1254;72744;-23
2023/09/25 03:36:58;;;;;;;54.90;32.20;;;;;;;17.95;88.34;99841.19;109433;1254;73209;-23
2023/09/25 03:39:26;;;;;;;57.90;35.80;;;;;;;17.99;88.46;99852.34;109251;1254;72690;-22
2023/09/25 03:41:53;;;;;;;19.00;12.20;;;;;;;17.96;88.61;99856.56;109260;1254;58833;-23
2023/09/25 03:44:21;;;;;;;12.80;7.40;;;;;;;17.73;90.29;99857.41;109395;1254;58758;-22
2023/09/25 03:46:49;;;;;;;26.70;16.50;;;;;;;18.14;88.88;99859.49;109430;1253;70824;-22
2023/09/25 03:49:16;;;;;;;11.70;9.10;;;;;;;18.18;87.16;99862.48;109365;1254;74303;-22
2023/09/25 03:51:44;;;;;;;15.30;9.10;;;;;;;18.16;87.59;99865.48;109240;1254;72681;-22
2023/09/25 03:54:12;;;;;;;28.80;25.00;;;;;;;17.89;88.52;99864.95;109382;1254;60201;-23
2023/09/25 03:56:39;;;;;;;27.00;19.40;;;;;;;17.80;89.80;99867.89;109272;1254;58671;-22
2023/09/25 03:59:07;;;;;;;34.00;21.70;;;;;;;18.13;88.05;99874.20;109429;1254;73052;-22
2023/09/25 04:01:35;;;;;;;29.10;18.50;;;;;;;18.36;86.67;99877.34;109421;1253;72426;-23
2023/09/25 04:04:03;;;;;;;44.90;28.70;;;;;;;18.38;85.38;99881.01;109399;1254;71364;-22
2023/09/25 04:06:31;;;;;;;30.90;22.80;;;;;;;18.18;87.03;99882.64;109260;1254;58855;-23
2023/09/25 04:08:59;;;;;;;47.50;32.70;;;;;;;18.20;86.66;99881.39;109278;1253;58712;-22
2023/09/25 04:11:27;;;;;;;25.40;17.10;;;;;;;17.76;88.77;99882.16;109247;1254;73036;-22
2023/09/25 04:13:54;;;;;;;34.70;22.40;;;;;;;18.08;87.84;99883.31;109415;1254;74438;-22
2023/09/25 04:16:22;;;;;;;17.30;13.60;;;;;;;18.05;87.48;99885.10;109378;1254;71365;-22
2023/09/25 04:18:50;;;;;;;53.10;36.70;;;;;;;18.03;88.28;99886.58;109278;1254;60062;-22
2023/09/25 04:21:18;;;;;;;45.40;27.00;;;;;;;17.66;89.13;99889.14;109304;1254;59035;-22
2023/09/25 04:23:46;;;;;;;14.90;9.70;;;;;;;17.80;89.48;99892.35;109398;1253;71747;-22
2023/09/25 04:26:13;;;;;;;37.30;20.00;;;;;;;18.32;86.45;99890.73;109410;1253;74264;-22
2023/09/25 04:28:41;;;;;;;115.20;48.30;;;;;;;18.36;84.66;99889.44;109221;1254;72721;-23
2023/09/25 04:31:12;;;;;;;25.60;14.20;;;;;;;18.03;85.62;99889.02;109333;1254;60078;-22
2023/09/25 04:33:40;;;;;;;29.90;18.00;;;;;;;17.94;86.20;99892.92;109186;1254;60026;-22
2023/09/25 04:36:10;;;;;;;81.60;59.00;;;;;;;17.80;87.10;99894.40;109373;1254;73831;-22
2023/09/25 04:38:38;;;;;;;15.50;11.80;;;;;;;17.66;88.39;99901.42;109388;1254;74269;-22
2023/09/25 04:41:06;;;;;;;14.50;9.60;;;;;;;17.87;87.05;99900.45;109171;1254;71393;-22
2023/09/25 04:43:34;;;;;;;19.10;9.10;;;;;;;18.33;85.29;99905.27;109324;1254;58991;-22
2023/09/25 04:46:01;;;;;;;42.10;24.40;;;;;;;18.30;84.66;99912.14;109216;1254;58672;-23
2023/09/25 04:48:29;;;;;;;42.80;26.20;;;;;;;17.97;85.92;99916.16;109371;1254;72685;-22
2023/09/25 04:50:57;;;;;;;41.50;26.70;;;;;;;17.97;86.23;99922.85;109363;1254;74320;-22
2023/09/25 04:53:25;;;;;;;35.80;22.10;;;;;;;17.89;87.20;99920.80;109183;1254;71335;-22
2023/09/25 04:55:53;;;;;;;15.50;8.20;;;;;;;18.35;84.79;99919.98;109322;1254;58797;-22
2023/09/25 04:58:20;;;;;;;20.80;14.10;;;;;;;18.49;83.55;99918.23;109372;1254;58749;-23
2023/09/25 05:00:48;;;;;;;20.10;13.80;;;;;;;18.33;84.19;99922.26;109213;1254;73895;-22
2023/09/25 05:03:16;;;;;;;20.50;13.90;;;;;;;18.52;82.96;99919.83;109405;1254;74321;-22
2023/09/25 05:05:44;;;;;;;33.80;24.40;;;;;;;18.46;82.90;99924.52;109174;1254;72667;-22
2023/09/25 05:08:12;;;;;;;34.30;23.60;;;;;;;18.16;84.52;99928.52;109330;1255;60025;-22
2023/09/25 05:10:41;;;;;;;11.20;8.30;;;;;;;18.08;85.45;99929.64;109352;1254;60122;-22
2023/09/25 05:13:09;;;;;;;37.90;25.20;;;;;;;18.22;84.83;99927.41;109208;1254;73783;-22
2023/09/25 05:15:36;;;;;;;29.50;20.30;;;;;;;18.59;83.20;99932.02;109342;1254;74546;-23
2023/09/25 05:18:04;;;;;;;33.10;22.60;;;;;;;18.49;83.14;99934.25;109149;1254;72700;-22
2023/09/25 05:20:32;;;;;;;49.40;31.40;;;;;;;18.51;82.57;99939.33;109383;1254;60070;-23
2023/09/25 05:23:00;;;;;;;56.10;37.40;;;;;;;18.20;84.21;99942.36;109216;1253;58793;-23
2023/09/25 05:25:27;;;;;;;79.60;44.30;;;;;;;18.06;85.08;99943.95;109349;1253;73858;-22
2023/09/25 05:27:56;;;;;;;126.80;75.60;;;;;;;18.16;84.84;99942.78;109208;1255;74477;-22
2023/09/25 05:30:24;;;;;;;36.00;19.30;;;;;;;18.30;84.35;99941.93;109118;1256;72759;-22
2023/09/25 05:32:52;;;;;;;160.70;97.00;;;;;;;18.23;84.19;99942.44;109126;1257;58842;-22
2023/09/25 05:35:21;;;;;;;109.00;67.50;;;;;;;18.18;84.89;99942.10;109213;1255;58756;-22
2023/09/25 05:37:49;;;;;;;58.60;37.10;;;;;;;17.76;85.95;99940.86;109140;1257;73869;-22
2023/09/25 05:40:17;;;;;;;19.10;11.70;;;;;;;17.63;87.45;99945.48;109338;1256;74363;-22
2023/09/25 05:42:46;;;;;;;26.50;17.10;;;;;;;17.86;86.40;99943.77;109122;1256;72666;-22
2023/09/25 05:45:15;;;;;;;15.90;12.80;;;;;;;18.01;84.61;99942.27;109117;1256;60131;-22
2023/09/25 05:47:43;;;;;;;32.50;18.80;;;;;;;17.80;85.55;99943.40;109148;1255;60249;-23
2023/09/25 05:50:11;;;;;;;42.70;29.30;;;;;;;17.94;85.10;99941.17;109192;1256;73859;-22
2023/09/25 05:52:39;;;;;;;53.60;33.90;;;;;;;18.09;84.63;99942.52;109219;1256;74264;-23
2023/09/25 05:55:07;;;;;;;16.40;9.10;;;;;;;17.65;86.52;99945.36;109301;1256;71683;-22
2023/09/25 05:57:35;;;;;;;39.10;24.80;;;;;;;17.98;85.06;99948.68;109130;1256;58891;-22
2023/09/25 06:00:12;;;;;;;42.80;27.70;;;;;;;18.15;84.26;99952.88;109165;1256;58770;-22
2023/09/25 06:02:41;;;;;;;62.60;40.20;;;;;;;18.34;83.33;99957.15;109124;1256;73019;-22
2023/09/25 06:05:09;;;;;;;43.80;29.50;;;;;;;18.36;83.06;99950.98;109219;1256;74372;-22
2023/09/25 06:07:37;;;;;;;46.60;31.20;;;;;;;17.81;85.31;99955.08;109123;1256;72655;-23
2023/09/25 06:10:07;;;;;;;14.40;11.00;;;;;;;17.74;86.41;99957.72;109039;1255;61694;-22
2023/09/25 06:12:42;;;;;;;44.50;30.10;;;;;;;17.78;85.79;99959.31;109162;1257;58733;-22
2023/09/25 06:15:10;;;;;;;51.40;34.70;;;;;;;17.98;84.82;99958.33;109156;1256;73811;-22
2023/09/25 06:17:39;;;;;;;53.20;35.20;;;;;;;18.27;84.09;99962.39;109229;1254;74346;-22
2023/09/25 06:20:15;;;;;;;22.20;11.10;;;;;;;18.01;83.99;99958.09;109175;1256;72739;-22
2023/09/25 06:22:44;;;;;;;13.40;9.60;;;;;;;17.87;85.05;99959.46;109117;1255;58851;-22
2023/09/25 06:25:19;;;;;;;15.50;10.30;;;;;;;18.03;84.38;99965.95;109226;1254;59111;-23
2023/09/25 06:27:48;;;;;;;14.10;10.40;;;;;;;18.27;83.09;99969.62;109101;1257;72577;-23
2023/09/25 06:30:19;;;;;;;16.40;12.50;;;;;;;17.96;84.20;99973.66;109034;1257;74337;-23
2023/09/25 06:32:50;;;;;;;24.90;16.60;;;;;;;17.76;85.29;99969.77;109130;1255;71529;-22
2023/09/25 06:35:21;;;;;;;29.00;20.80;;;;;;;18.04;84.54;99977.09;109095;1255;61672;-22
2023/09/25 06:37:53;;;;;;;34.60;23.20;;;;;;;18.44;82.23;99983.23;109121;1256;60031;-23
2023/09/25 06:40:24;;;;;;;30.90;21.80;;;;;;;18.50;81.90;99986.30;109149;1255;72993;-22
2023/09/25 06:42:54;;;;;;;37.30;28.00;;;;;;;18.59;81.82;99990.88;109092;1256;75467;-22
2023/09/25 06:45:24;;;;;;;29.70;23.70;;;;;;;18.67;80.57;99994.48;109063;1257;71384;-22
2023/09/25 06:47:53;;;;;;;32.90;22.90;;;;;;;18.52;81.19;99994.59;109068;1256;58920;-22
2023/09/25 06:50:23;;;;;;;16.80;11.00;;;;;;;17.88;84.28;99995.70;109100;1256;59111;-23
2023/09/25 06:52:53;;;;;;;23.30;13.80;;;;;;;18.16;83.45;99994.09;109089;1255;74873;-23
2023/09/25 06:55:23;;;;;;;15.60;11.60;;;;;;;18.38;82.08;99995.45;109150;1255;74425;-22
2023/09/25 06:57:53;;;;;;;15.50;11.00;;;;;;;18.03;83.58;99997.95;109060;1256;72644;-22
2023/09/25 07:00:24;;;;;;;19.20;13.10;;;;;;;18.51;81.77;99996.59;109069;1256;58905;-22
2023/09/25 07:02:55;;;;;;;18.20;9.80;;;;;;;18.05;82.84;99998.86;109076;1255;60219;-23
2023/09/25 07:05:28;;;;;;;13.80;9.60;;;;;;;18.28;82.28;100000.80;109078;1256;73115;-22
2023/09/25 07:07:59;;;;;;;16.30;12.80;;;;;;;18.44;81.05;99998.20;109097;1255;74467;-22
2023/09/25 07:10:30;;;;;;;16.30;13.10;;;;;;;18.60;80.52;100002.52;109031;1257;71756;-22
2023/09/25 07:13:01;;;;;;;19.70;12.60;;;;;;;18.62;80.03;100005.20;109053;1255;60139;-22
2023/09/25 07:15:31;;;;;;;23.60;14.60;;;;;;;18.48;80.59;100008.48;109046;1256;60136;-23
2023/09/25 07:18:02;;;;;;;21.60;15.90;;;;;;;18.68;79.91;100013.42;109086;1255;72219;-23
2023/09/25 07:20:34;;;;;;;18.60;12.10;;;;;;;18.42;80.43;100013.64;109084;1256;73721;-22
2023/09/25 07:23:05;;;;;;;23.90;13.60;;;;;;;18.71;79.88;100016.98;109063;1256;72644;-22
2023/09/25 07:25:34;;;;;;;23.60;13.90;;;;;;;18.62;79.67;100017.67;109036;1256;58847;-23
2023/09/25 07:35:40;;;;;;;19.20;13.10;;;;;;;18.70;79.17;100026.59;102592;1292;600256;-21
2023/09/25 07:38:08;;;;;;;10.00;8.80;;;;;;;19.05;77.91;100037.29;104791;1271;61222;-22
2023/09/25 07:40:35;;;;;;;14.10;10.60;;;;;;;19.76;74.95;100032.21;104804;1265;62323;-21
2023/09/25 07:43:03;;;;;;;16.50;11.30;;;;;;;19.52;75.21;100035.70;104821;1272;70986;-22
2023/09/25 07:45:32;;;;;;;14.60;11.00;;;;;;;19.60;74.79;100039.43;104794;1267;76807;-21
2023/09/25 07:48:00;;;;;;;17.00;12.30;;;;;;;19.21;76.55;100044.21;104874;1267;71394;-22
2023/09/25 07:50:27;;;;;;;14.70;13.20;;;;;;;19.20;76.20;100048.63;102800;1264;3182482;-21
2023/09/25 08:00:37;;;;;;;19.20;12.30;;;;;;;19.75;74.87;100047.64;102626;1291;600186;-22
2023/09/25 08:03:06;;;;;;;17.80;11.30;;;;;;;20.27;73.27;100048.05;104817;1272;61216;-23
2023/09/25 08:13:18;;;;;;;13.10;9.70;;;;;;;20.99;69.87;100053.77;102600;1293;600219;-22
2023/09/25 08:15:46;;;;;;;15.90;13.70;;;;;;;21.11;69.18;100051.70;104831;1267;61196;-21
2023/09/25 08:18:14;;;;;;;15.20;11.70;;;;;;;20.53;70.80;100054.89;104868;1268;61156;-21
2023/09/25 08:20:42;;;;;;;12.40;11.00;;;;;;;20.78;70.15;100055.84;104858;1273;71034;-21
2023/09/25 08:23:10;;;;;;;17.30;11.70;;;;;;;21.27;68.39;100057.27;104846;1273;76395;-21
2023/09/25 08:25:39;;;;;;;15.00;10.90;;;;;;;21.36;68.14;100057.33;104793;1267;72376;-21
2023/09/25 08:28:07;;;;;;;17.90;10.20;;;;;;;20.47;70.35;100060.66;102695;1269;61183;-22
2023/09/25 08:30:35;;;;;;;15.60;10.70;;;;;;;20.31;71.75;100062.56;104775;1263;61141;-22
2023/09/25 08:33:02;;;;;;;12.20;10.60;;;;;;;20.70;70.58;100056.29;104755;1270;61253;-21
2023/09/25 08:35:30;;;;;;;15.40;10.90;;;;;;;20.36;71.14;100054.27;105020;1264;74771;-21
2023/09/25 08:37:58;;;;;;;13.50;10.10;;;;;;;20.78;70.20;100050.70;104735;1269;74966;-22
2023/09/25 08:40:27;;;;;;;11.40;9.30;;;;;;;20.80;69.58;100053.66;104864;1264;61083;-23
2023/09/25 08:42:56;;;;;;;13.90;10.10;;;;;;;21.00;68.63;100055.45;104795;1272;61228;-22
2023/09/25 08:45:41;;;;;;;11.80;8.70;;;;;;;21.36;67.42;100060.41;104827;1269;71828;-23
2023/09/25 08:55:50;;;;;;;11.70;8.80;;;;;;;20.87;68.74;100049.58;102776;1289;600172;-25
2023/09/25 08:58:18;;;;;;;10.10;8.10;;;;;;;21.08;67.70;100046.23;104873;1270;61190;-24
2023/09/25 09:00:46;;;;;;;15.30;8.30;;;;;;;21.31;67.04;100044.41;104852;1264;61277;-27
2023/09/25 09:03:13;;;;;;;11.90;7.60;;;;;;;21.41;66.03;100044.77;104831;1271;73348;-24
2023/09/25 09:05:41;;;;;;;10.30;7.80;;;;;;;22.01;64.63;100046.38;104856;1269;76868;-23
2023/09/25 09:08:09;;;;;;;10.00;8.00;;;;;;;22.36;63.02;100044.17;104817;1264;71425;-24
2023/09/25 09:10:38;;;;;;;20.30;17.50;;;;;;;21.61;65.21;100048.38;102868;1264;3163599;-23
2023/09/25 09:13:10;;;;;;;15.80;12.10;;;;;;;22.10;63.46;100047.04;104882;1264;61205;-24
2023/09/25 09:15:39;;;;;;;12.80;9.10;;;;;;;22.53;62.12;100045.64;105112;1264;74124;-23
2023/09/25 09:18:21;;;;;;;16.90;10.00;;;;;;;23.18;59.95;100046.27;105215;1264;73217;-23
2023/09/25 09:20:55;;;;;;;7.70;6.80;;;;;;;23.38;59.47;100040.84;104886;1266;71348;-23
2023/09/25 09:23:40;;;;;;;16.50;8.20;;;;;;;23.83;57.97;100036.56;105453;1263;61228;-23
2023/09/25 09:26:10;;;;;;;22.50;13.20;;;;;;;23.33;58.98;100038.14;105279;1266;61176;-23
2023/09/25 09:28:38;;;;;;;13.60;8.40;;;;;;;23.07;59.97;100043.16;105209;1266;73045;-23
2023/09/25 09:31:07;;;;;;;17.80;12.90;;;;;;;23.23;59.65;100042.77;105268;1257;77133;-23
2023/09/25 09:33:41;;;;;;;15.80;10.80;;;;;;;23.71;58.22;100035.52;105321;1261;74689;-22
2023/09/25 09:36:10;;;;;;;23.80;16.70;;;;;;;23.44;58.31;100037.53;105266;1257;61324;-22
2023/09/25 09:38:42;;;;;;;23.20;14.40;;;;;;;23.51;58.03;100042.60;105275;1257;61203;-22
2023/09/25 09:41:09;;;;;;;9.40;6.70;;;;;;;23.88;57.38;100036.15;105247;1258;75117;-23
2023/09/25 09:43:38;;;;;;;8.40;7.50;;;;;;;23.91;57.02;100034.02;105299;1264;76110;-23
2023/09/25 09:46:06;;;;;;;12.00;6.60;;;;;;;24.32;55.87;100033.56;105326;1260;74767;-23
2023/09/25 09:48:34;;;;;;;7.60;6.20;;;;;;;24.89;54.42;100028.49;105263;1261;61774;-22
2023/09/25 09:51:03;;;;;;;11.00;7.30;;;;;;;24.92;53.73;100027.11;105222;1258;61068;-23
2023/09/25 09:53:34;;;;;;;12.90;7.80;;;;;;;24.91;54.03;100022.64;105153;1258;75292;-24
2023/09/25 09:56:01;;;;;;;24.80;18.20;;;;;;;24.41;55.15;100027.96;105069;1258;73458;-23
2023/09/25 09:58:30;;;;;;;10.10;7.00;;;;;;;25.07;54.04;100028.17;105279;1261;72669;-23
2023/09/25 10:01:00;;;;;;;6.90;5.40;;;;;;;25.84;51.37;100028.87;105125;1257;61185;-23
2023/09/25 10:03:31;;;;;;;10.40;6.10;;;;;;;26.15;50.24;100026.52;105279;1257;61669;-23
2023/09/25 10:05:59;;;;;;;16.30;11.60;;;;;;;25.50;51.31;100021.23;105319;1260;75096;-23
2023/09/25 10:08:28;;;;;;;10.80;7.80;;;;;;;25.12;52.52;100018.16;105459;1263;74883;-23
2023/09/25 10:11:13;;;;;;;9.40;5.60;;;;;;;25.44;52.02;100015.89;105205;1260;74192;-23
2023/09/25 10:13:41;;;;;;;7.90;5.40;;;;;;;25.83;49.89;100019.59;105309;1258;61726;-23
2023/09/25 10:16:12;;;;;;;7.30;5.50;;;;;;;26.30;49.81;100014.70;105284;1259;61192;-23
2023/09/25 10:18:41;;;;;;;6.70;4.90;;;;;;;26.99;49.12;100008.80;105274;1260;73211;-23
2023/09/25 10:21:14;;;;;;;12.70;6.40;;;;;;;27.51;47.07;100009.40;105336;1260;73083;-23
2023/09/25 10:23:43;;;;;;;;;;;;;;;27.18;47.06;100009.02;105242;1264;72692;-23
2023/09/25 10:26:18;;;;;;;10.80;7.30;;;;;;;26.80;48.19;100008.73;105213;1264;61240;-23
2023/09/25 10:29:10;;;;;;;7.40;4.80;;;;;;;27.46;46.71;100011.40;105125;1266;61154;-24
2023/09/25 10:31:38;;;;;;;7.90;5.10;;;;;;;27.70;45.82;100006.63;105190;1260;75342;-22
2023/09/25 10:34:08;;;;;;;9.40;5.10;;;;;;;28.15;44.78;100001.65;105714;1251;75037;-23
2023/09/25 10:36:37;;;;;;;18.00;13.00;;;;;;;28.43;44.58;99998.41;105667;1259;76025;-23
2023/09/25 10:46:43;;;;;;;10.50;5.30;;;;;;;25.59;49.19;99992.79;102749;1294;600123;-22
2023/09/25 10:49:12;;;;;;;10.50;5.60;;;;;;;26.43;47.41;99996.34;104829;1264;61250;-22
2023/09/25 10:51:40;;;;;;;9.80;5.10;;;;;;;26.45;47.32;99988.59;105118;1264;61154;-22
2023/09/25 10:54:08;;;;;;;25.60;15.10;;;;;;;27.10;46.24;99986.73;104847;1266;70977;-22
2023/09/25 10:56:35;;;;;;;26.70;18.40;;;;;;;26.99;45.52;99984.42;104850;1264;75689;-23
2023/09/25 10:59:04;;;;;;;9.90;5.40;;;;;;;26.81;45.16;99985.00;104840;1266;74824;-23
2023/09/25 11:01:31;;;;;;;6.00;5.00;;;;;;;26.16;46.68;99981.95;102727;1269;3126396;-23
2023/09/25 11:10:29;;;;;;;7.60;4.50;;;;;;;27.26;43.86;99974.60;102665;1291;600013;-22
2023/09/25 11:12:59;;;;;;;6.10;4.60;;;;;;;28.15;42.86;99968.23;104821;1269;61209;-22
2023/09/25 11:15:28;;;;;;;6.40;4.50;;;;;;;28.54;41.49;99968.23;104842;1264;61203;-22
2023/09/25 11:17:59;;;;;;;9.80;5.70;;;;;;;28.61;41.13;99972.32;104937;1263;71015;-22
2023/09/25 11:28:07;;;;;;;10.50;6.10;;;;;;;27.87;41.20;99969.73;102616;1295;600286;-24
2023/09/25 11:30:34;;;;;;;15.00;4.70;;;;;;;28.22;40.88;99972.90;104853;1273;61095;-24
2023/09/25 11:33:05;;;;;;;17.90;11.60;;;;;;;28.05;40.31;99970.05;104835;1271;61171;-24
2023/09/25 11:35:37;;;;;;;10.30;5.40;;;;;;;28.14;40.80;99969.23;104686;1267;74485;-24
2023/09/25 11:38:08;;;;;;;8.30;4.60;;;;;;;27.70;42.38;99970.63;104748;1268;76520;-24
2023/09/25 11:40:36;;;;;;;8.40;4.80;;;;;;;27.68;41.78;99966.11;102900;1266;3221687;-27
2023/09/25 11:43:03;;;;;;;11.30;6.90;;;;;;;27.92;41.65;99965.40;105491;1261;61061;-24
2023/09/25 11:45:31;;;;;;;11.40;5.20;;;;;;;28.17;41.31;99963.70;105559;1263;61129;-24
2023/09/25 11:55:38;;;;;;;8.50;6.10;;;;;;;28.23;40.75;99960.04;103105;1288;600098;-22
2023/09/25 11:58:08;;;;;;;17.20;12.30;;;;;;;28.16;40.56;99958.66;104829;1266;62139;-22
2023/09/25 12:00:38;;;;;;;10.10;6.20;;;;;;;27.46;41.59;99961.98;104879;1270;62275;-23
2023/09/25 12:03:07;;;;;;;10.30;5.60;;;;;;;27.67;40.84;99959.55;105102;1266;71643;-22
2023/09/25 12:05:36;;;;;;;14.70;9.30;;;;;;;27.30;41.18;99962.06;104868;1270;73580;-22
2023/09/25 12:08:11;;;;;;;9.30;5.40;;;;;;;26.90;42.05;99960.34;103661;1267;3247136;-23
2023/09/25 12:10:39;;;;;;;6.90;4.10;;;;;;;27.65;40.79;99958.14;104895;1262;61183;-22
2023/09/25 12:13:07;;;;;;;10.10;4.90;;;;;;;27.54;40.12;99959.30;105265;1264;61188;-23
2023/09/25 12:15:35;;;;;;;11.00;5.90;;;;;;;27.02;40.98;99960.37;105217;1263;71297;-23
2023/09/25 12:18:04;;;;;;;8.60;4.60;;;;;;;26.59;41.83;99958.03;105132;1263;72712;-22
2023/09/25 12:20:36;;;;;;;8.10;5.40;;;;;;;27.06;41.10;99959.40;104869;1263;73875;-22
2023/09/25 12:23:04;;;;;;;8.30;5.20;;;;;;;26.65;41.63;99956.73;104826;1272;62380;-22
2023/09/25 12:25:35;;;;;;;12.70;8.10;;;;;;;26.56;41.67;99957.42;104841;1269;61191;-23